createdAt,value
2023-02-17T07:18:02.514Z,100345.11
2023-02-17T07:20:32.070Z,100343.02
2023-02-17T07:23:00.657Z,100339.41
2023-02-17T07:25:28.243Z,100334.41
2023-02-17T07:27:55.729Z,100342.38
2023-02-17T07:30:27.150Z,100337.39
2023-02-17T07:32:54.924Z,100342.02
2023-02-17T07:35:22.574Z,100341.91
2023-02-17T07:37:52.244Z,100349.27
2023-02-17T07:40:19.967Z,100343.09
2023-02-17T07:42:48.128Z,100350.88
2023-02-17T07:45:15.571Z,100347.45
2023-02-17T07:47:43.444Z,100348.42
2023-02-17T07:50:11.439Z,100350.90
2023-02-17T07:52:38.661Z,100350.09
2023-02-17T07:55:06.422Z,100344.65
2023-02-17T07:57:33.464Z,100344.19
2023-02-17T08:00:00.833Z,100342.42
2023-02-17T08:02:28.180Z,100337.98
2023-02-17T08:04:56.959Z,100344.71
2023-02-17T08:07:24.792Z,100339.90
2023-02-17T08:10:11.082Z,100336.09
2023-02-17T08:12:57.553Z,100332.20
2023-02-17T08:15:24.712Z,100331.85
2023-02-17T08:17:53.443Z,100339.70
2023-02-17T08:20:20.852Z,100334.02
2023-02-17T08:22:48.224Z,100343.54
2023-02-17T08:25:15.592Z,100343.90
2023-02-17T08:27:42.527Z,100335.16
2023-02-17T08:30:10.197Z,100339.10
2023-02-17T08:32:37.939Z,100343.13
2023-02-17T08:35:06.725Z,100341.95
2023-02-17T08:37:34.049Z,100345.46
2023-02-17T08:40:01.806Z,100343.16
2023-02-17T08:42:28.746Z,100344.31
2023-02-17T08:44:57.308Z,100337.30
2023-02-17T08:47:25.210Z,100335.02
2023-02-17T08:49:52.142Z,100336.17
2023-02-17T08:52:19.797Z,100331.44
2023-02-17T08:54:47.906Z,100337.31
2023-02-17T08:57:15.163Z,100337.04
2023-02-17T08:59:42.169Z,100335.89
2023-02-17T09:02:11.071Z,100336.25
2023-02-17T09:04:38.088Z,100328.95
2023-02-17T09:07:09.967Z,100331.63
2023-02-17T09:09:37.133Z,100327.78
2023-02-17T09:12:04.168Z,100326.11
2023-02-17T09:14:31.606Z,100327.32
2023-02-17T09:16:58.793Z,100326.99
2023-02-17T09:19:26.473Z,100323.77
2023-02-17T09:21:54.139Z,100315.38
2023-02-17T09:24:24.263Z,100315.27
2023-02-17T09:26:51.564Z,100313.91
2023-02-17T09:29:18.702Z,100313.46
2023-02-17T09:31:46.499Z,100315.80
2023-02-17T09:34:14.209Z,100307.76
2023-02-17T09:36:41.737Z,100306.66
2023-02-17T09:39:11.591Z,100302.43
2023-02-17T09:41:52.112Z,100300.48
2023-02-17T09:44:26.948Z,100300.52
2023-02-17T09:47:14.542Z,100300.73
2023-02-17T09:49:45.090Z,100300.33
2023-02-17T09:52:25.939Z,100300.28
2023-02-17T09:55:09.185Z,100296.98
2023-02-17T09:58:11.509Z,100290.37
2023-02-17T10:00:43.914Z,100289.20
2023-02-17T10:03:31.324Z,100286.09
2023-02-17T10:06:04.505Z,100278.45
2023-02-17T10:08:36.880Z,100277.40
2023-02-17T10:11:14.480Z,100272.88
2023-02-17T10:13:43.356Z,100269.79
2023-02-17T10:16:14.060Z,100269.98
2023-02-17T10:18:44.394Z,100264.64
2023-02-17T10:21:15.769Z,100264.14
2023-02-17T10:23:42.813Z,100258.96
2023-02-17T10:26:28.397Z,100254.36
2023-02-17T10:29:14.662Z,100250.05
2023-02-17T10:31:56.951Z,100253.00
2023-02-17T10:34:48.766Z,100252.98
2023-02-17T10:37:24.927Z,100249.98
2023-02-17T10:39:58.718Z,100239.38
2023-02-17T10:42:28.567Z,100244.63
2023-02-17T10:45:02.051Z,100244.65
2023-02-17T10:47:29.682Z,100245.76
2023-02-17T10:49:56.738Z,100244.36
2023-02-17T10:52:29.978Z,100238.10
2023-02-17T10:55:00.242Z,100240.58
2023-02-17T10:57:32.336Z,100231.71
2023-02-17T10:59:59.923Z,100233.05
2023-02-17T11:02:40.364Z,100229.17
2023-02-17T11:05:07.501Z,100227.13
2023-02-17T11:07:44.109Z,100218.92
2023-02-17T11:10:24.579Z,100224.29
2023-02-17T11:12:51.681Z,100222.86
2023-02-17T11:15:20.384Z,100216.37
2023-02-17T11:17:48.874Z,100218.56
2023-02-17T11:20:15.951Z,100211.65
2023-02-17T11:22:45.881Z,100215.33
2023-02-17T11:25:24.844Z,100209.02
2023-02-17T11:27:56.839Z,100205.98
2023-02-17T11:30:24.435Z,100205.34
2023-02-17T11:32:51.905Z,100201.56
2023-02-17T11:35:36.127Z,100199.54
2023-02-17T11:38:03.599Z,100195.89
2023-02-17T11:40:32.759Z,100197.49
2023-02-17T11:43:01.523Z,100191.41
2023-02-17T11:45:39.375Z,100197.52
2023-02-17T11:48:28.336Z,100194.48
2023-02-17T11:51:14.455Z,100198.84
2023-02-17T11:54:04.047Z,100194.61
2023-02-17T11:56:40.979Z,100200.19
2023-02-17T11:59:33.101Z,100196.31
2023-02-17T12:02:08.934Z,100196.26
2023-02-17T12:04:53.434Z,100201.71
2023-02-17T12:07:38.639Z,100196.55
2023-02-17T12:10:14.620Z,100193.02
2023-02-17T12:13:12.187Z,100194.43
2023-02-17T12:16:17.654Z,100196.21
2023-02-17T12:18:57.042Z,100196.39
2023-02-17T12:21:36.221Z,100189.24
2023-02-17T12:24:18.901Z,100189.09
2023-02-17T12:27:00.390Z,100189.31
2023-02-17T12:29:42.775Z,100189.45
2023-02-17T12:32:20.816Z,100184.05
2023-02-17T12:34:55.204Z,100181.41
2023-02-17T12:37:29.010Z,100180.94
2023-02-17T12:40:22.908Z,100177.11
2023-02-17T12:43:01.546Z,100177.73
2023-02-17T12:45:42.869Z,100177.55
2023-02-17T12:48:16.156Z,100176.23
2023-02-17T12:50:49.840Z,100174.00
2023-02-17T12:53:24.216Z,100173.55
2023-02-17T12:55:55.177Z,100173.71
2023-02-17T12:58:25.080Z,100170.42
2023-02-17T13:01:06.870Z,100169.39
2023-02-17T13:03:37.840Z,100168.08
2023-02-17T13:06:26.553Z,100168.15
2023-02-17T13:08:56.514Z,100171.46
2023-02-17T13:11:33.538Z,100177.14
2023-02-17T13:14:10.957Z,100177.43
2023-02-17T13:16:45.028Z,100181.09
2023-02-17T13:19:14.460Z,100177.58
2023-02-17T13:21:54.893Z,100180.52
2023-02-17T13:24:38.758Z,100176.98
2023-02-17T13:27:21.837Z,100177.35
2023-02-17T13:30:10.307Z,100180.17
2023-02-17T13:32:38.755Z,100178.92
2023-02-17T13:35:08.538Z,100179.56
2023-02-17T13:37:35.876Z,100182.14
2023-02-17T13:40:24.625Z,100180.90
2023-02-17T13:42:54.137Z,100176.92
2023-02-17T13:45:30.027Z,100173.70
2023-02-17T13:48:12.539Z,100174.02
2023-02-17T13:50:48.099Z,100172.88
2023-02-17T13:53:30.717Z,100172.58
2023-02-17T13:56:02.262Z,100171.52
2023-02-17T13:58:35.179Z,100174.75
2023-02-17T14:01:03.936Z,100177.41
2023-02-17T14:03:36.153Z,100172.27
2023-02-17T14:06:03.286Z,100172.00
2023-02-17T14:08:42.118Z,100174.65
2023-02-17T14:11:15.628Z,100169.08
2023-02-17T14:13:50.072Z,100170.84
2023-02-17T14:16:33.516Z,100170.23
2023-02-17T14:19:20.967Z,100169.73
2023-02-17T14:22:04.943Z,100175.97
2023-02-17T14:24:37.133Z,100178.32
2023-02-17T14:27:08.899Z,100183.27
2023-02-17T14:29:46.279Z,100176.98
2023-02-17T14:32:35.901Z,100181.23
2023-02-17T14:35:23.491Z,100181.89
2023-02-17T14:37:51.599Z,100182.17
2023-02-17T14:40:23.817Z,100180.03
2023-02-17T14:42:51.096Z,100184.50
2023-02-17T14:45:19.149Z,100184.06
2023-02-17T14:47:48.821Z,100192.81
2023-02-17T14:50:17.675Z,100201.63
2023-02-17T14:52:46.332Z,100200.27
2023-02-17T14:55:16.702Z,100199.66
2023-02-17T14:57:45.842Z,100202.70
2023-02-17T15:00:14.224Z,100207.47
2023-02-17T15:02:41.294Z,100210.17
2023-02-17T15:05:08.485Z,100209.46
2023-02-17T15:07:36.379Z,100213.66
2023-02-17T15:10:12.449Z,100217.27
2023-02-17T15:12:39.366Z,100215.02
2023-02-17T15:15:06.475Z,100215.63
2023-02-17T15:17:34.236Z,100215.59
2023-02-17T15:20:02.084Z,100217.34
2023-02-17T15:22:35.205Z,100216.11
2023-02-17T15:25:02.425Z,100216.39
2023-02-17T15:27:29.799Z,100212.52
2023-02-17T15:29:56.954Z,100216.16
2023-02-17T15:32:24.140Z,100218.59
2023-02-17T15:34:51.216Z,100218.81
2023-02-17T15:37:18.646Z,100214.48
2023-02-17T15:39:46.105Z,100217.58
2023-02-17T15:42:13.730Z,100219.34
2023-02-17T15:44:47.967Z,100223.05
2023-02-17T15:47:17.179Z,100227.86
2023-02-17T15:49:44.358Z,100225.52
2023-02-17T15:52:14.668Z,100228.60
2023-02-17T15:54:42.744Z,100231.06
2023-02-17T15:57:21.065Z,100234.15
2023-02-17T15:59:48.371Z,100228.20
2023-02-17T16:02:21.575Z,100231.58
2023-02-17T16:04:49.035Z,100233.71
2023-02-17T16:07:16.496Z,100232.65
2023-02-17T16:09:43.726Z,100236.10
2023-02-17T16:12:18.847Z,100231.05
2023-02-17T16:14:46.571Z,100232.20
2023-02-17T16:17:15.604Z,100241.21
2023-02-17T16:19:43.358Z,100238.42
2023-02-17T16:22:10.494Z,100245.83
2023-02-17T16:24:57.201Z,100246.98
2023-02-17T16:27:25.266Z,100250.76
2023-02-17T16:29:53.260Z,100252.54
2023-02-17T16:32:20.720Z,100250.95
2023-02-17T16:34:52.865Z,100250.80
2023-02-17T16:37:21.547Z,100251.25
2023-02-17T16:39:52.341Z,100245.30
2023-02-17T16:42:23.100Z,100243.68
2023-02-17T16:44:50.518Z,100243.70
2023-02-17T16:47:21.570Z,100242.80
2023-02-17T16:49:51.524Z,100235.39
2023-02-17T16:52:27.970Z,100235.02
2023-02-17T16:54:57.789Z,100233.25
2023-02-17T16:57:26.641Z,100229.73
2023-02-17T16:59:56.205Z,100233.60
2023-02-17T17:02:25.294Z,100228.44
2023-02-17T17:04:55.055Z,100223.84
2023-02-17T17:07:22.053Z,100233.04
2023-02-17T17:10:14.817Z,100231.59
2023-02-17T17:12:36.116Z,100229.54
2023-02-17T17:15:03.483Z,100231.25
2023-02-17T17:17:32.560Z,100231.05
2023-02-17T17:19:59.464Z,100234.65
2023-02-17T17:22:26.426Z,100230.48
2023-02-17T17:24:53.702Z,100228.55
2023-02-17T17:27:20.616Z,100234.28
2023-02-17T17:29:48.420Z,100230.41
2023-02-17T17:32:16.535Z,100234.70
2023-02-17T17:34:45.680Z,100236.13
2023-02-17T17:37:12.841Z,100231.04
2023-02-17T17:39:40.172Z,100232.49
2023-02-17T17:42:07.271Z,100228.33
2023-02-17T17:44:39.523Z,100232.16
2023-02-17T17:47:06.578Z,100227.08
2023-02-17T17:49:33.474Z,100228.27
2023-02-17T17:52:00.613Z,100222.81
2023-02-17T17:54:27.702Z,100228.16
2023-02-17T17:56:54.952Z,100226.02
2023-02-17T17:59:22.114Z,100224.98
2023-02-17T18:01:49.296Z,100227.67
2023-02-17T18:04:17.191Z,100229.98
2023-02-17T18:06:48.834Z,100229.09
2023-02-17T18:09:30.657Z,100234.80
2023-02-17T18:12:11.658Z,100228.13
2023-02-17T18:14:42.483Z,100226.81
2023-02-17T18:17:09.831Z,100223.48
2023-02-17T18:19:37.046Z,100221.22
2023-02-17T18:22:04.252Z,100227.16
2023-02-17T18:24:32.218Z,100224.20
2023-02-17T18:26:59.221Z,100225.25
2023-02-17T18:29:27.645Z,100229.01
2023-02-17T18:31:54.637Z,100225.23
2023-02-17T18:34:25.482Z,100234.15
2023-02-17T18:36:52.513Z,100227.34
2023-02-17T18:39:19.935Z,100233.27
2023-02-17T18:41:50.334Z,100232.47
2023-02-17T18:44:17.569Z,100235.80
2023-02-17T18:46:44.701Z,100235.02
2023-02-17T18:49:11.728Z,100235.52
2023-02-17T18:51:38.944Z,100234.55
2023-02-17T18:54:10.786Z,100226.38
2023-02-17T18:56:37.822Z,100226.69
2023-02-17T18:59:04.962Z,100222.99
2023-02-17T19:01:33.765Z,100228.56
2023-02-17T19:04:01.649Z,100232.81
2023-02-17T19:06:29.876Z,100235.98
2023-02-17T19:08:57.286Z,100228.11
2023-02-17T19:11:24.655Z,100226.36
2023-02-17T19:13:55.222Z,100221.05
2023-02-17T19:16:28.503Z,100218.47
2023-02-17T19:18:57.851Z,100219.64
2023-02-17T19:21:27.237Z,100213.21
2023-02-17T19:23:56.973Z,100207.42
2023-02-17T19:26:26.260Z,100206.23
2023-02-17T19:28:53.601Z,100214.65
2023-02-17T19:31:21.224Z,100210.61
2023-02-17T19:35:49.555Z,100218.67
2023-02-17T19:38:17.267Z,100221.26
2023-02-17T19:40:44.716Z,100214.21
2023-02-17T19:43:12.949Z,100209.77
2023-02-17T19:45:41.677Z,100211.64
2023-02-17T19:48:09.587Z,100206.94
2023-02-17T19:50:39.234Z,100210.64
2023-02-17T19:53:06.769Z,100214.71
2023-02-17T19:55:33.960Z,100212.19
2023-02-17T19:58:01.051Z,100210.61
2023-02-17T20:00:29.122Z,100207.55
2023-02-17T20:02:56.633Z,100203.94
2023-02-17T20:05:23.952Z,100193.52
2023-02-17T20:14:52.774Z,100188.05
2023-02-17T20:17:19.592Z,100189.11
2023-02-17T20:19:46.313Z,100190.10
2023-02-17T20:22:13.219Z,100196.02
2023-02-17T20:24:41.445Z,100197.23
2023-02-17T20:27:08.465Z,100198.38
2023-02-17T20:29:36.249Z,100194.58
2023-02-17T20:32:04.352Z,100198.06
2023-02-17T20:34:33.516Z,100198.38
2023-02-17T20:37:00.231Z,100196.05
2023-02-17T20:39:26.896Z,100192.86
2023-02-17T20:41:54.281Z,100189.38
2023-02-17T20:44:21.339Z,100183.14
2023-02-17T20:46:48.200Z,100179.10
2023-02-17T20:49:14.808Z,100176.45
2023-02-17T20:51:41.251Z,100173.45
2023-02-17T20:54:08.206Z,100171.10
2023-02-17T20:56:37.749Z,100174.94
2023-02-17T20:59:04.650Z,100176.90
2023-02-17T21:01:31.427Z,100177.80
2023-02-17T21:03:57.731Z,100172.58
2023-02-17T21:06:26.838Z,100166.52
2023-02-17T21:08:55.668Z,100167.06
2023-02-17T21:11:22.142Z,100165.23
2023-02-17T21:13:48.880Z,100161.70
2023-02-17T21:16:22.130Z,100157.33
2023-02-17T21:18:49.324Z,100155.01
2023-02-17T21:21:15.710Z,100152.83
2023-02-17T21:23:43.224Z,100143.91
2023-02-17T21:26:10.225Z,100141.45
2023-02-17T21:28:37.292Z,100136.53
2023-02-17T21:31:03.711Z,100144.16
2023-02-17T21:33:30.589Z,100143.14
2023-02-17T21:35:57.142Z,100147.59
2023-02-17T21:38:24.057Z,100148.45
2023-02-17T21:40:50.504Z,100146.84
2023-02-17T21:43:36.626Z,100142.38
2023-02-17T21:46:10.268Z,100142.42
2023-02-17T21:48:39.912Z,100145.27
2023-02-17T21:51:07.695Z,100144.55
2023-02-17T21:53:34.960Z,100140.58
2023-02-17T21:56:01.559Z,100144.23
2023-02-17T21:58:27.998Z,100144.34
2023-02-17T22:00:54.641Z,100143.79
2023-02-17T22:03:21.412Z,100145.25
2023-02-17T22:05:48.305Z,100137.00
2023-02-17T22:08:15.025Z,100131.50
2023-02-17T22:10:44.024Z,100133.15
2023-02-17T22:13:10.379Z,100129.73
2023-02-17T22:15:37.228Z,100133.73
2023-02-17T22:18:03.611Z,100136.63
2023-02-17T22:20:30.785Z,100135.59
2023-02-17T22:22:57.245Z,100130.20
2023-02-17T22:25:24.562Z,100133.96
2023-02-17T22:27:51.004Z,100125.17
2023-02-17T22:30:17.645Z,100122.66
2023-02-17T22:32:44.085Z,100113.70
2023-02-17T22:35:10.362Z,100116.02
2023-02-17T22:37:36.882Z,100111.14
2023-02-17T22:40:04.438Z,100107.89
2023-02-17T22:42:31.528Z,100105.88
2023-02-17T22:44:57.684Z,100105.21
2023-02-17T22:47:24.113Z,100101.83
2023-02-17T22:49:50.616Z,100105.98
2023-02-17T22:52:17.137Z,100099.23
2023-02-17T22:54:43.911Z,100095.55
2023-02-17T22:57:10.412Z,100090.14
2023-02-17T22:59:36.988Z,100087.64
2023-02-17T23:02:03.674Z,100084.17
2023-02-17T23:04:31.166Z,100083.20
2023-02-17T23:06:58.673Z,100082.64
2023-02-17T23:09:26.015Z,100087.55
2023-02-17T23:11:53.544Z,100097.80
2023-02-17T23:14:27.473Z,100092.23
2023-02-17T23:16:56.892Z,100088.66
2023-02-17T23:19:27.509Z,100085.58
2023-02-17T23:21:56.079Z,100086.73
2023-02-17T23:24:23.347Z,100079.19
2023-02-17T23:26:49.925Z,100082.45
2023-02-17T23:29:16.632Z,100077.45
2023-02-17T23:31:43.190Z,100062.56
2023-02-17T23:34:11.126Z,100064.89
2023-02-17T23:36:42.563Z,100062.82
2023-02-17T23:39:09.129Z,100061.83
2023-02-17T23:41:36.537Z,100052.95
2023-02-17T23:44:03.340Z,100045.61
2023-02-17T23:46:29.882Z,100040.27
2023-02-17T23:48:56.841Z,100030.85
2023-02-17T23:51:23.483Z,100025.63
2023-02-17T23:53:50.436Z,100031.08
2023-02-17T23:56:24.202Z,100025.61
2023-02-17T23:58:50.894Z,100019.88
